sensor_id;sensor_type;location;lat;lon;timestamp;P1;durP1;ratioP1;P2;durP2;ratioP2
16994;SDS011;8614;48.522;9.206;2023-01-29T03:02:40;19.13;;;17.40;;
16994;SDS011;8614;48.522;9.206;2023-01-29T03:05:10;19.20;;;17.50;;
16994;SDS011;8614;48.522;9.206;2023-01-29T03:07:42;18.53;;;17.03;;
16994;SDS011;8614;48.522;9.206;2023-01-29T03:10:25;19.30;;;17.30;;
16994;SDS011;8614;48.522;9.206;2023-01-29T03:12:59;18.70;;;17.10;;
16994;SDS011;8614;48.522;9.206;2023-01-29T03:15:30;18.23;;;16.70;;
16994;SDS011;8614;48.522;9.206;2023-01-29T03:18:21;19.43;;;17.73;;
16994;SDS011;8614;48.522;9.206;2023-01-29T03:20:57;18.47;;;16.87;;
16994;SDS011;8614;48.522;9.206;2023-01-29T03:23:29;18.77;;;17.07;;
16994;SDS011;8614;48.522;9.206;2023-01-29T03:26:17;19.00;;;17.20;;
16994;SDS011;8614;48.522;9.206;2023-01-29T03:29:04;18.67;;;17.03;;
16994;SDS011;8614;48.522;9.206;2023-01-29T03:31:52;18.53;;;16.93;;
16994;SDS011;8614;48.522;9.206;2023-01-29T03:34:34;18.60;;;16.83;;
16994;SDS011;8614;48.522;9.206;2023-01-29T03:37:09;19.47;;;17.47;;
16994;SDS011;8614;48.522;9.206;2023-01-29T03:39:39;19.00;;;17.10;;
16994;SDS011;8614;48.522;9.206;2023-01-29T03:42:08;18.80;;;17.10;;
16994;SDS011;8614;48.522;9.206;2023-01-29T03:44:45;18.33;;;16.73;;
16994;SDS011;8614;48.522;9.206;2023-01-29T03:47:30;18.27;;;16.67;;
16994;SDS011;8614;48.522;9.206;2023-01-29T03:50:06;17.93;;;16.33;;
16994;SDS011;8614;48.522;9.206;2023-01-29T03:52:41;18.30;;;16.77;;
16994;SDS011;8614;48.522;9.206;2023-01-29T03:55:14;19.07;;;17.30;;
16994;SDS011;8614;48.522;9.206;2023-01-29T03:57:49;18.77;;;16.97;;
16994;SDS011;8614;48.522;9.206;2023-01-29T04:00:24;19.90;;;18.20;;
16994;SDS011;8614;48.522;9.206;2023-01-29T04:03:00;18.80;;;17.13;;
16994;SDS011;8614;48.522;9.206;2023-01-29T04:05:35;19.67;;;17.90;;
16994;SDS011;8614;48.522;9.206;2023-01-29T04:08:15;18.13;;;16.53;;
16994;SDS011;8614;48.522;9.206;2023-01-29T04:10:46;18.73;;;17.20;;
16994;SDS011;8614;48.522;9.206;2023-01-29T04:13:15;17.97;;;16.50;;
16994;SDS011;8614;48.522;9.206;2023-01-29T04:15:45;18.83;;;17.07;;
16994;SDS011;8614;48.522;9.206;2023-01-29T04:18:20;17.57;;;16.10;;
16994;SDS011;8614;48.522;9.206;2023-01-29T04:21:18;17.67;;;16.17;;
16994;SDS011;8614;48.522;9.206;2023-01-29T04:23:46;18.93;;;17.37;;
16994;SDS011;8614;48.522;9.206;2023-01-29T04:26:24;18.47;;;16.87;;
16994;SDS011;8614;48.522;9.206;2023-01-29T04:29:08;19.53;;;17.87;;
16994;SDS011;8614;48.522;9.206;2023-01-29T04:31:44;20.20;;;18.40;;
16994;SDS011;8614;48.522;9.206;2023-01-29T04:34:20;19.47;;;17.83;;
16994;SDS011;8614;48.522;9.206;2023-01-29T04:36:58;18.70;;;17.10;;
16994;SDS011;8614;48.522;9.206;2023-01-29T04:39:34;18.00;;;16.60;;
16994;SDS011;8614;48.522;9.206;2023-01-29T04:42:11;19.00;;;17.23;;
16994;SDS011;8614;48.522;9.206;2023-01-29T04:44:42;19.00;;;17.30;;
16994;SDS011;8614;48.522;9.206;2023-01-29T04:47:17;17.87;;;16.37;;
16994;SDS011;8614;48.522;9.206;2023-01-29T04:49:52;19.23;;;17.63;;
16994;SDS011;8614;48.522;9.206;2023-01-29T04:52:31;18.63;;;17.03;;
16994;SDS011;8614;48.522;9.206;2023-01-29T04:55:05;18.87;;;17.07;;
16994;SDS011;8614;48.522;9.206;2023-01-29T04:57:38;18.53;;;17.03;;
16994;SDS011;8614;48.522;9.206;2023-01-29T05:00:11;17.93;;;16.50;;
16994;SDS011;8614;48.522;9.206;2023-01-29T05:02:43;18.33;;;16.73;;
16994;SDS011;8614;48.522;9.206;2023-01-29T05:05:11;18.10;;;16.60;;
16994;SDS011;8614;48.522;9.206;2023-01-29T05:07:42;18.37;;;16.87;;
16994;SDS011;8614;48.522;9.206;2023-01-29T05:10:09;17.63;;;16.13;;
16994;SDS011;8614;48.522;9.206;2023-01-29T05:12:38;17.50;;;16.00;;
16994;SDS011;8614;48.522;9.206;2023-01-29T05:15:10;17.33;;;15.83;;
16994;SDS011;8614;48.522;9.206;2023-01-29T05:17:39;17.10;;;15.70;;
16994;SDS011;8614;48.522;9.206;2023-01-29T05:20:07;18.80;;;17.10;;
16994;SDS011;8614;48.522;9.206;2023-01-29T05:22:38;17.60;;;16.17;;
16994;SDS011;8614;48.522;9.206;2023-01-29T05:25:11;17.67;;;15.97;;
16994;SDS011;8614;48.522;9.206;2023-01-29T05:27:46;18.37;;;16.77;;
16994;SDS011;8614;48.522;9.206;2023-01-29T05:30:30;18.23;;;16.83;;
16994;SDS011;8614;48.522;9.206;2023-01-29T05:32:59;18.53;;;16.97;;
16994;SDS011;8614;48.522;9.206;2023-01-29T05:35:26;18.13;;;16.63;;
16994;SDS011;8614;48.522;9.206;2023-01-29T05:37:54;17.40;;;15.93;;
16994;SDS011;8614;48.522;9.206;2023-01-29T05:40:23;18.57;;;16.97;;
16994;SDS011;8614;48.522;9.206;2023-01-29T05:42:50;17.50;;;16.00;;
16994;SDS011;8614;48.522;9.206;2023-01-29T05:45:17;17.80;;;16.20;;
16994;SDS011;8614;48.522;9.206;2023-01-29T05:47:44;17.27;;;15.90;;
16994;SDS011;8614;48.522;9.206;2023-01-29T05:50:11;17.30;;;15.90;;
16994;SDS011;8614;48.522;9.206;2023-01-29T05:52:39;19.50;;;17.70;;
16994;SDS011;8614;48.522;9.206;2023-01-29T05:55:06;19.40;;;17.60;;
16994;SDS011;8614;48.522;9.206;2023-01-29T05:57:36;18.70;;;17.00;;
16994;SDS011;8614;48.522;9.206;2023-01-29T06:00:03;18.40;;;16.80;;
16994;SDS011;8614;48.522;9.206;2023-01-29T06:02:37;18.37;;;16.70;;
16994;SDS011;8614;48.522;9.206;2023-01-29T06:05:04;19.70;;;18.00;;
16994;SDS011;8614;48.522;9.206;2023-01-29T06:07:31;17.93;;;16.37;;
16994;SDS011;8614;48.522;9.206;2023-01-29T06:09:58;19.33;;;17.70;;
16994;SDS011;8614;48.522;9.206;2023-01-29T06:12:25;18.73;;;17.00;;
16994;SDS011;8614;48.522;9.206;2023-01-29T06:14:53;19.20;;;17.57;;
16994;SDS011;8614;48.522;9.206;2023-01-29T06:17:20;20.67;;;18.77;;
16994;SDS011;8614;48.522;9.206;2023-01-29T06:19:47;19.20;;;17.60;;
16994;SDS011;8614;48.522;9.206;2023-01-29T06:22:14;18.87;;;17.27;;
16994;SDS011;8614;48.522;9.206;2023-01-29T06:24:41;20.00;;;18.20;;
16994;SDS011;8614;48.522;9.206;2023-01-29T06:27:07;20.55;;;18.85;;
16994;SDS011;8614;48.522;9.206;2023-01-29T06:29:34;19.83;;;18.03;;
16994;SDS011;8614;48.522;9.206;2023-01-29T06:32:02;20.50;;;18.60;;
16994;SDS011;8614;48.522;9.206;2023-01-29T06:34:29;18.47;;;16.77;;
16994;SDS011;8614;48.522;9.206;2023-01-29T06:36:56;17.53;;;16.17;;
16994;SDS011;8614;48.522;9.206;2023-01-29T06:39:23;15.83;;;14.57;;
16994;SDS011;8614;48.522;9.206;2023-01-29T06:41:50;15.50;;;14.20;;
16994;SDS011;8614;48.522;9.206;2023-01-29T06:44:16;17.33;;;15.77;;
16994;SDS011;8614;48.522;9.206;2023-01-29T06:46:43;14.93;;;13.80;;
16994;SDS011;8614;48.522;9.206;2023-01-29T06:49:12;15.20;;;14.00;;
16994;SDS011;8614;48.522;9.206;2023-01-29T06:51:38;15.50;;;14.20;;
16994;SDS011;8614;48.522;9.206;2023-01-29T06:54:05;14.63;;;13.63;;
16994;SDS011;8614;48.522;9.206;2023-01-29T06:56:32;14.80;;;13.70;;
16994;SDS011;8614;48.522;9.206;2023-01-29T06:58:59;13.93;;;12.93;;
16994;SDS011;8614;48.522;9.206;2023-01-29T07:01:26;14.13;;;13.03;;
16994;SDS011;8614;48.522;9.206;2023-01-29T07:03:53;14.60;;;13.60;;
16994;SDS011;8614;48.522;9.206;2023-01-29T07:06:25;13.97;;;12.93;;
16994;SDS011;8614;48.522;9.206;2023-01-29T07:08:52;13.90;;;12.90;;
16994;SDS011;8614;48.522;9.206;2023-01-29T07:11:19;13.67;;;12.67;;
16994;SDS011;8614;48.522;9.206;2023-01-29T07:13:46;13.87;;;12.87;;
16994;SDS011;8614;48.522;9.206;2023-01-29T07:16:13;13.57;;;12.67;;
16994;SDS011;8614;48.522;9.206;2023-01-29T07:18:40;13.67;;;12.77;;
16994;SDS011;8614;48.522;9.206;2023-01-29T07:21:06;14.13;;;13.03;;
16994;SDS011;8614;48.522;9.206;2023-01-29T07:23:35;14.50;;;13.40;;
16994;SDS011;8614;48.522;9.206;2023-01-29T07:26:01;14.60;;;13.50;;
16994;SDS011;8614;48.522;9.206;2023-01-29T07:28:29;14.73;;;13.67;;
16994;SDS011;8614;48.522;9.206;2023-01-29T07:30:56;14.90;;;13.80;;
16994;SDS011;8614;48.522;9.206;2023-01-29T07:33:23;14.80;;;13.60;;
16994;SDS011;8614;48.522;9.206;2023-01-29T07:35:50;16.17;;;14.87;;
16994;SDS011;8614;48.522;9.206;2023-01-29T07:38:17;15.67;;;14.47;;
16994;SDS011;8614;48.522;9.206;2023-01-29T07:40:45;15.10;;;13.90;;
16994;SDS011;8614;48.522;9.206;2023-01-29T07:43:13;13.93;;;12.93;;
16994;SDS011;8614;48.522;9.206;2023-01-29T07:45:40;13.23;;;12.33;;
16994;SDS011;8614;48.522;9.206;2023-01-29T07:48:08;13.57;;;12.57;;
16994;SDS011;8614;48.522;9.206;2023-01-29T07:50:37;13.23;;;12.33;;
16994;SDS011;8614;48.522;9.206;2023-01-29T07:53:05;13.83;;;12.83;;
16994;SDS011;8614;48.522;9.206;2023-01-29T07:55:31;14.50;;;13.40;;
16994;SDS011;8614;48.522;9.206;2023-01-29T07:58:00;14.07;;;13.07;;
16994;SDS011;8614;48.522;9.206;2023-01-29T08:00:28;14.10;;;13.00;;
16994;SDS011;8614;48.522;9.206;2023-01-29T08:03:00;14.57;;;13.40;;
16994;SDS011;8614;48.522;9.206;2023-01-29T08:05:28;13.97;;;12.97;;
16994;SDS011;8614;48.522;9.206;2023-01-29T08:07:55;14.77;;;13.67;;
16994;SDS011;8614;48.522;9.206;2023-01-29T08:10:21;14.60;;;13.50;;
16994;SDS011;8614;48.522;9.206;2023-01-29T08:12:52;13.47;;;12.50;;
16994;SDS011;8614;48.522;9.206;2023-01-29T08:15:21;13.43;;;12.43;;
16994;SDS011;8614;48.522;9.206;2023-01-29T08:17:48;13.17;;;12.20;;
16994;SDS011;8614;48.522;9.206;2023-01-29T08:20:16;13.00;;;12.00;;
16994;SDS011;8614;48.522;9.206;2023-01-29T08:22:43;13.67;;;12.63;;
16994;SDS011;8614;48.522;9.206;2023-01-29T08:25:10;14.47;;;13.37;;
16994;SDS011;8614;48.522;9.206;2023-01-29T08:27:37;14.53;;;13.43;;
16994;SDS011;8614;48.522;9.206;2023-01-29T08:30:04;14.03;;;12.93;;
16994;SDS011;8614;48.522;9.206;2023-01-29T08:32:33;13.13;;;12.23;;
16994;SDS011;8614;48.522;9.206;2023-01-29T08:35:00;13.30;;;12.30;;
16994;SDS011;8614;48.522;9.206;2023-01-29T08:37:27;12.83;;;11.93;;
16994;SDS011;8614;48.522;9.206;2023-01-29T08:39:54;13.20;;;12.20;;
16994;SDS011;8614;48.522;9.206;2023-01-29T08:42:21;13.37;;;12.47;;
16994;SDS011;8614;48.522;9.206;2023-01-29T08:44:48;13.53;;;12.53;;
16994;SDS011;8614;48.522;9.206;2023-01-29T08:47:14;13.00;;;12.10;;
16994;SDS011;8614;48.522;9.206;2023-01-29T08:49:42;12.97;;;12.07;;
16994;SDS011;8614;48.522;9.206;2023-01-29T08:52:09;12.57;;;11.77;;
16994;SDS011;8614;48.522;9.206;2023-01-29T08:54:36;13.03;;;12.13;;
16994;SDS011;8614;48.522;9.206;2023-01-29T08:57:03;12.77;;;11.97;;
16994;SDS011;8614;48.522;9.206;2023-01-29T08:59:30;12.60;;;11.80;;
16994;SDS011;8614;48.522;9.206;2023-01-29T09:01:57;13.57;;;12.47;;
16994;SDS011;8614;48.522;9.206;2023-01-29T09:04:24;12.40;;;11.50;;
16994;SDS011;8614;48.522;9.206;2023-01-29T09:06:52;12.53;;;11.53;;
16994;SDS011;8614;48.522;9.206;2023-01-29T09:09:19;12.53;;;11.63;;
16994;SDS011;8614;48.522;9.206;2023-01-29T09:11:46;12.50;;;11.60;;
16994;SDS011;8614;48.522;9.206;2023-01-29T09:14:19;12.37;;;11.43;;
16994;SDS011;8614;48.522;9.206;2023-01-29T09:16:46;13.00;;;12.10;;
16994;SDS011;8614;48.522;9.206;2023-01-29T09:19:13;12.50;;;11.70;;
16994;SDS011;8614;48.522;9.206;2023-01-29T09:21:40;12.13;;;11.33;;
16994;SDS011;8614;48.522;9.206;2023-01-29T09:24:08;12.90;;;12.00;;
16994;SDS011;8614;48.522;9.206;2023-01-29T09:26:35;12.80;;;11.90;;
16994;SDS011;8614;48.522;9.206;2023-01-29T09:29:03;13.37;;;12.37;;
16994;SDS011;8614;48.522;9.206;2023-01-29T09:31:30;13.00;;;12.00;;
16994;SDS011;8614;48.522;9.206;2023-01-29T09:33:58;12.30;;;11.50;;
16994;SDS011;8614;48.522;9.206;2023-01-29T09:36:24;12.43;;;11.63;;
16994;SDS011;8614;48.522;9.206;2023-01-29T09:38:51;11.90;;;11.10;;
16994;SDS011;8614;48.522;9.206;2023-01-29T09:41:22;12.73;;;11.83;;
16994;SDS011;8614;48.522;9.206;2023-01-29T09:43:59;12.47;;;11.47;;
16994;SDS011;8614;48.522;9.206;2023-01-29T09:46:29;13.23;;;12.37;;
16994;SDS011;8614;48.522;9.206;2023-01-29T09:49:02;13.63;;;12.73;;
16994;SDS011;8614;48.522;9.206;2023-01-29T09:51:36;13.23;;;12.30;;
16994;SDS011;8614;48.522;9.206;2023-01-29T09:54:11;13.40;;;12.50;;
16994;SDS011;8614;48.522;9.206;2023-01-29T09:56:44;12.27;;;11.37;;
16994;SDS011;8614;48.522;9.206;2023-01-29T09:59:12;13.00;;;12.00;;
16994;SDS011;8614;48.522;9.206;2023-01-29T10:01:44;12.60;;;11.70;;
16994;SDS011;8614;48.522;9.206;2023-01-29T10:07:33;12.67;;;11.70;;
16994;SDS011;8614;48.522;9.206;2023-01-29T10:10:24;12.30;;;11.50;;
16994;SDS011;8614;48.522;9.206;2023-01-29T10:13:10;11.90;;;11.10;;
16994;SDS011;8614;48.522;9.206;2023-01-29T10:15:46;12.57;;;11.57;;
16994;SDS011;8614;48.522;9.206;2023-01-29T10:18:27;12.17;;;11.27;;
16994;SDS011;8614;48.522;9.206;2023-01-29T10:21:18;13.00;;;12.00;;
16994;SDS011;8614;48.522;9.206;2023-01-29T10:24:05;13.50;;;12.53;;
16994;SDS011;8614;48.522;9.206;2023-01-29T10:26:40;12.83;;;11.93;;
16994;SDS011;8614;48.522;9.206;2023-01-29T10:29:09;12.73;;;11.83;;
16994;SDS011;8614;48.522;9.206;2023-01-29T10:31:46;13.73;;;12.73;;
16994;SDS011;8614;48.522;9.206;2023-01-29T10:34:18;13.73;;;12.70;;
16994;SDS011;8614;48.522;9.206;2023-01-29T10:36:54;12.87;;;11.97;;
16994;SDS011;8614;48.522;9.206;2023-01-29T10:39:24;13.00;;;12.00;;
16994;SDS011;8614;48.522;9.206;2023-01-29T10:41:55;12.90;;;11.90;;
16994;SDS011;8614;48.522;9.206;2023-01-29T10:44:34;13.20;;;12.30;;
16994;SDS011;8614;48.522;9.206;2023-01-29T10:50:11;13.30;;;12.40;;
16994;SDS011;8614;48.522;9.206;2023-01-29T10:52:48;12.60;;;11.70;;
16994;SDS011;8614;48.522;9.206;2023-01-29T10:55:28;12.30;;;11.30;;
16994;SDS011;8614;48.522;9.206;2023-01-29T10:58:06;13.00;;;12.10;;
16994;SDS011;8614;48.522;9.206;2023-01-29T11:00:46;12.70;;;11.70;;
16994;SDS011;8614;48.522;9.206;2023-01-29T11:03:14;12.47;;;11.57;;
16994;SDS011;8614;48.522;9.206;2023-01-29T11:05:43;12.33;;;11.50;;
16994;SDS011;8614;48.522;9.206;2023-01-29T11:08:17;12.47;;;11.67;;
16994;SDS011;8614;48.522;9.206;2023-01-29T11:10:50;12.80;;;11.90;;
16994;SDS011;8614;48.522;9.206;2023-01-29T11:13:25;12.60;;;11.70;;
16994;SDS011;8614;48.522;9.206;2023-01-29T11:15:58;11.93;;;11.03;;
16994;SDS011;8614;48.522;9.206;2023-01-29T11:18:25;12.00;;;11.20;;
16994;SDS011;8614;48.522;9.206;2023-01-29T11:20:59;12.70;;;11.50;;
16994;SDS011;8614;48.522;9.206;2023-01-29T11:23:28;11.10;;;10.40;;
16994;SDS011;8614;48.522;9.206;2023-01-29T11:25:56;11.93;;;11.03;;
16994;SDS011;8614;48.522;9.206;2023-01-29T11:28:36;12.03;;;11.13;;
16994;SDS011;8614;48.522;9.206;2023-01-29T11:31:23;11.97;;;11.07;;
16994;SDS011;8614;48.522;9.206;2023-01-29T11:33:52;11.97;;;11.17;;
16994;SDS011;8614;48.522;9.206;2023-01-29T11:36:30;12.53;;;11.63;;
16994;SDS011;8614;48.522;9.206;2023-01-29T11:39:04;12.23;;;11.30;;
16994;SDS011;8614;48.522;9.206;2023-01-29T11:41:41;12.10;;;11.20;;
16994;SDS011;8614;48.522;9.206;2023-01-29T11:44:18;11.60;;;10.80;;
16994;SDS011;8614;48.522;9.206;2023-01-29T11:46:52;11.93;;;11.13;;
16994;SDS011;8614;48.522;9.206;2023-01-29T11:49:20;12.43;;;11.53;;
16994;SDS011;8614;48.522;9.206;2023-01-29T11:51:54;11.60;;;10.80;;
16994;SDS011;8614;48.522;9.206;2023-01-29T11:54:23;12.03;;;11.23;;
16994;SDS011;8614;48.522;9.206;2023-01-29T11:56:54;11.43;;;10.63;;
16994;SDS011;8614;48.522;9.206;2023-01-29T11:59:28;12.20;;;11.30;;
16994;SDS011;8614;48.522;9.206;2023-01-29T12:02:05;11.70;;;10.90;;
16994;SDS011;8614;48.522;9.206;2023-01-29T12:04:44;12.03;;;11.17;;
16994;SDS011;8614;48.522;9.206;2023-01-29T12:07:12;12.33;;;11.37;;
16994;SDS011;8614;48.522;9.206;2023-01-29T12:09:44;11.93;;;11.03;;
16994;SDS011;8614;48.522;9.206;2023-01-29T12:12:16;11.97;;;11.07;;
16994;SDS011;8614;48.522;9.206;2023-01-29T12:15:00;11.63;;;10.83;;
16994;SDS011;8614;48.522;9.206;2023-01-29T12:17:42;11.53;;;10.70;;
16994;SDS011;8614;48.522;9.206;2023-01-29T12:20:16;11.93;;;10.93;;
16994;SDS011;8614;48.522;9.206;2023-01-29T12:22:50;11.20;;;10.40;;
16994;SDS011;8614;48.522;9.206;2023-01-29T12:25:23;11.23;;;10.43;;
16994;SDS011;8614;48.522;9.206;2023-01-29T12:27:59;11.03;;;10.33;;
16994;SDS011;8614;48.522;9.206;2023-01-29T12:30:33;11.50;;;10.70;;
16994;SDS011;8614;48.522;9.206;2023-01-29T12:33:11;11.20;;;10.40;;
16994;SDS011;8614;48.522;9.206;2023-01-29T12:35:46;10.83;;;10.07;;
16994;SDS011;8614;48.522;9.206;2023-01-29T12:38:19;12.17;;;11.27;;
16994;SDS011;8614;48.522;9.206;2023-01-29T12:40:50;12.13;;;11.13;;
16994;SDS011;8614;48.522;9.206;2023-01-29T12:43:21;12.20;;;11.20;;
16994;SDS011;8614;48.522;9.206;2023-01-29T12:45:53;11.77;;;10.63;;
16994;SDS011;8614;48.522;9.206;2023-01-29T12:48:25;11.20;;;10.30;;
16994;SDS011;8614;48.522;9.206;2023-01-29T12:50:56;11.43;;;10.63;;
16994;SDS011;8614;48.522;9.206;2023-01-29T12:53:32;11.63;;;10.73;;
16994;SDS011;8614;48.522;9.206;2023-01-29T12:56:04;11.80;;;10.83;;
16994;SDS011;8614;48.522;9.206;2023-01-29T12:58:36;11.33;;;10.53;;
16994;SDS011;8614;48.522;9.206;2023-01-29T13:01:10;11.97;;;10.90;;
16994;SDS011;8614;48.522;9.206;2023-01-29T13:03:44;11.83;;;10.90;;
16994;SDS011;8614;48.522;9.206;2023-01-29T13:06:17;11.77;;;10.80;;
16994;SDS011;8614;48.522;9.206;2023-01-29T13:08:48;12.57;;;11.67;;
16994;SDS011;8614;48.522;9.206;2023-01-29T13:11:18;11.60;;;10.80;;
16994;SDS011;8614;48.522;9.206;2023-01-29T13:13:53;11.63;;;10.73;;
16994;SDS011;8614;48.522;9.206;2023-01-29T13:16:27;12.73;;;11.73;;
16994;SDS011;8614;48.522;9.206;2023-01-29T13:19:01;12.87;;;11.90;;
16994;SDS011;8614;48.522;9.206;2023-01-29T13:21:32;14.37;;;12.60;;
16994;SDS011;8614;48.522;9.206;2023-01-29T13:24:03;12.70;;;11.80;;
16994;SDS011;8614;48.522;9.206;2023-01-29T13:26:36;13.40;;;12.40;;
16994;SDS011;8614;48.522;9.206;2023-01-29T13:29:04;12.73;;;11.70;;
16994;SDS011;8614;48.522;9.206;2023-01-29T13:31:31;13.30;;;12.33;;
16994;SDS011;8614;48.522;9.206;2023-01-29T13:34:05;13.10;;;11.80;;
16994;SDS011;8614;48.522;9.206;2023-01-29T13:36:40;13.07;;;12.07;;
16994;SDS011;8614;48.522;9.206;2023-01-29T13:39:22;12.83;;;11.93;;
16994;SDS011;8614;48.522;9.206;2023-01-29T13:41:52;12.53;;;11.70;;
16994;SDS011;8614;48.522;9.206;2023-01-29T13:44:22;12.10;;;11.20;;
16994;SDS011;8614;48.522;9.206;2023-01-29T13:46:52;12.27;;;11.30;;
16994;SDS011;8614;48.522;9.206;2023-01-29T13:49:29;12.37;;;11.47;;
16994;SDS011;8614;48.522;9.206;2023-01-29T13:52:15;12.43;;;11.53;;
16994;SDS011;8614;48.522;9.206;2023-01-29T13:54:53;11.93;;;11.13;;
16994;SDS011;8614;48.522;9.206;2023-01-29T13:57:36;12.53;;;11.63;;
16994;SDS011;8614;48.522;9.206;2023-01-29T14:03:32;13.50;;;12.47;;
16994;SDS011;8614;48.522;9.206;2023-01-29T14:15:22;13.50;;;12.40;;
16994;SDS011;8614;48.522;9.206;2023-01-29T14:17:55;13.13;;;12.23;;
16994;SDS011;8614;48.522;9.206;2023-01-29T14:20:58;13.57;;;12.47;;
16994;SDS011;8614;48.522;9.206;2023-01-29T14:23:35;12.97;;;11.97;;
16994;SDS011;8614;48.522;9.206;2023-01-29T14:26:17;12.70;;;11.70;;
16994;SDS011;8614;48.522;9.206;2023-01-29T14:28:55;12.67;;;11.77;;
16994;SDS011;8614;48.522;9.206;2023-01-29T14:31:27;13.20;;;12.20;;
16994;SDS011;8614;48.522;9.206;2023-01-29T14:33:58;12.97;;;12.07;;
16994;SDS011;8614;48.522;9.206;2023-01-29T14:36:26;13.40;;;12.33;;
16994;SDS011;8614;48.522;9.206;2023-01-29T14:38:55;13.60;;;12.60;;
16994;SDS011;8614;48.522;9.206;2023-01-29T14:41:24;12.57;;;11.67;;
16994;SDS011;8614;48.522;9.206;2023-01-29T14:47:04;13.43;;;12.33;;
16994;SDS011;8614;48.522;9.206;2023-01-29T14:52:19;12.73;;;11.77;;
16994;SDS011;8614;48.522;9.206;2023-01-29T14:54:51;13.77;;;12.67;;
16994;SDS011;8614;48.522;9.206;2023-01-29T14:57:22;13.90;;;12.70;;
16994;SDS011;8614;48.522;9.206;2023-01-29T14:59:52;13.63;;;12.53;;
16994;SDS011;8614;48.522;9.206;2023-01-29T15:02:27;14.03;;;12.90;;
16994;SDS011;8614;48.522;9.206;2023-01-29T15:05:01;13.53;;;12.53;;
16994;SDS011;8614;48.522;9.206;2023-01-29T15:07:33;13.83;;;12.80;;
16994;SDS011;8614;48.522;9.206;2023-01-29T15:10:07;13.93;;;12.83;;
16994;SDS011;8614;48.522;9.206;2023-01-29T15:12:42;13.43;;;12.43;;
16994;SDS011;8614;48.522;9.206;2023-01-29T15:15:14;14.63;;;13.23;;
16994;SDS011;8614;48.522;9.206;2023-01-29T15:17:47;13.73;;;12.73;;
16994;SDS011;8614;48.522;9.206;2023-01-29T15:20:26;13.60;;;12.60;;
16994;SDS011;8614;48.522;9.206;2023-01-29T15:22:55;13.87;;;12.77;;
16994;SDS011;8614;48.522;9.206;2023-01-29T15:25:48;13.53;;;12.47;;
16994;SDS011;8614;48.522;9.206;2023-01-29T15:28:44;13.80;;;12.77;;
16994;SDS011;8614;48.522;9.206;2023-01-29T15:31:18;13.37;;;12.33;;
16994;SDS011;8614;48.522;9.206;2023-01-29T15:33:50;14.50;;;13.30;;
16994;SDS011;8614;48.522;9.206;2023-01-29T15:36:19;14.60;;;13.37;;
16994;SDS011;8614;48.522;9.206;2023-01-29T15:39:03;14.43;;;13.20;;
16994;SDS011;8614;48.522;9.206;2023-01-29T15:41:42;14.97;;;13.77;;
16994;SDS011;8614;48.522;9.206;2023-01-29T15:44:11;14.77;;;13.57;;
16994;SDS011;8614;48.522;9.206;2023-01-29T15:46:41;15.53;;;14.20;;
16994;SDS011;8614;48.522;9.206;2023-01-29T15:49:14;16.00;;;14.63;;
16994;SDS011;8614;48.522;9.206;2023-01-29T15:51:46;15.30;;;14.07;;
16994;SDS011;8614;48.522;9.206;2023-01-29T15:54:14;16.47;;;15.00;;
16994;SDS011;8614;48.522;9.206;2023-01-29T15:56:44;15.83;;;14.47;;
16994;SDS011;8614;48.522;9.206;2023-01-29T15:59:16;15.90;;;14.53;;
16994;SDS011;8614;48.522;9.206;2023-01-29T16:01:47;15.40;;;14.10;;
16994;SDS011;8614;48.522;9.206;2023-01-29T16:04:22;16.17;;;14.77;;
16994;SDS011;8614;48.522;9.206;2023-01-29T16:06:53;15.93;;;14.40;;
16994;SDS011;8614;48.522;9.206;2023-01-29T16:09:24;15.80;;;14.50;;
16994;SDS011;8614;48.522;9.206;2023-01-29T16:12:19;15.57;;;14.37;;
16994;SDS011;8614;48.522;9.206;2023-01-29T16:14:47;15.27;;;14.07;;
16994;SDS011;8614;48.522;9.206;2023-01-29T16:17:22;16.57;;;15.17;;
16994;SDS011;8614;48.522;9.206;2023-01-29T16:19:54;15.53;;;14.30;;
16994;SDS011;8614;48.522;9.206;2023-01-29T16:22:22;15.83;;;14.53;;
16994;SDS011;8614;48.522;9.206;2023-01-29T16:24:50;15.73;;;14.37;;
16994;SDS011;8614;48.522;9.206;2023-01-29T16:27:17;15.17;;;13.87;;
16994;SDS011;8614;48.522;9.206;2023-01-29T16:29:45;15.27;;;13.93;;
16994;SDS011;8614;48.522;9.206;2023-01-29T16:32:12;16.53;;;15.03;;
16994;SDS011;8614;48.522;9.206;2023-01-29T16:34:44;17.20;;;15.50;;
16994;SDS011;8614;48.522;9.206;2023-01-29T16:37:17;17.20;;;15.60;;
16994;SDS011;8614;48.522;9.206;2023-01-29T16:39:47;17.20;;;15.40;;
16994;SDS011;8614;48.522;9.206;2023-01-29T16:42:23;16.77;;;15.37;;
16994;SDS011;8614;48.522;9.206;2023-01-29T16:44:55;17.57;;;15.97;;
16994;SDS011;8614;48.522;9.206;2023-01-29T16:47:27;19.10;;;17.20;;
16994;SDS011;8614;48.522;9.206;2023-01-29T16:49:56;19.33;;;17.43;;
16994;SDS011;8614;48.522;9.206;2023-01-29T16:52:25;18.23;;;16.60;;
16994;SDS011;8614;48.522;9.206;2023-01-29T16:55:00;18.97;;;17.00;;
16994;SDS011;8614;48.522;9.206;2023-01-29T16:57:46;21.37;;;19.10;;
16994;SDS011;8614;48.522;9.206;2023-01-29T17:00:17;24.50;;;21.00;;
16994;SDS011;8614;48.522;9.206;2023-01-29T17:02:48;27.53;;;23.67;;
16994;SDS011;8614;48.522;9.206;2023-01-29T17:05:19;29.00;;;25.90;;
16994;SDS011;8614;48.522;9.206;2023-01-29T17:07:51;26.97;;;24.13;;
16994;SDS011;8614;48.522;9.206;2023-01-29T17:10:47;24.90;;;22.27;;
16994;SDS011;8614;48.522;9.206;2023-01-29T17:13:22;27.60;;;23.80;;
16994;SDS011;8614;48.522;9.206;2023-01-29T17:15:57;25.93;;;21.90;;
16994;SDS011;8614;48.522;9.206;2023-01-29T17:18:26;23.67;;;21.33;;
16994;SDS011;8614;48.522;9.206;2023-01-29T17:20:57;23.30;;;20.83;;
16994;SDS011;8614;48.522;9.206;2023-01-29T17:23:24;21.90;;;19.57;;
16994;SDS011;8614;48.522;9.206;2023-01-29T17:25:52;22.00;;;19.77;;
16994;SDS011;8614;48.522;9.206;2023-01-29T17:28:24;22.57;;;20.17;;
16994;SDS011;8614;48.522;9.206;2023-01-29T17:30:54;21.73;;;19.47;;
16994;SDS011;8614;48.522;9.206;2023-01-29T17:33:24;22.10;;;20.00;;
16994;SDS011;8614;48.522;9.206;2023-01-29T17:35:56;22.00;;;19.83;;
16994;SDS011;8614;48.522;9.206;2023-01-29T17:38:26;22.00;;;19.80;;
16994;SDS011;8614;48.522;9.206;2023-01-29T17:40:54;19.67;;;17.77;;
16994;SDS011;8614;48.522;9.206;2023-01-29T17:43:24;19.87;;;18.07;;
16994;SDS011;8614;48.522;9.206;2023-01-29T17:45:51;20.60;;;18.60;;
16994;SDS011;8614;48.522;9.206;2023-01-29T17:48:19;20.97;;;18.97;;
16994;SDS011;8614;48.522;9.206;2023-01-29T17:50:48;21.53;;;19.43;;
16994;SDS011;8614;48.522;9.206;2023-01-29T17:53:17;23.40;;;21.10;;
16994;SDS011;8614;48.522;9.206;2023-01-29T17:56:12;22.57;;;20.20;;
16994;SDS011;8614;48.522;9.206;2023-01-29T17:58:43;23.03;;;19.23;;
16994;SDS011;8614;48.522;9.206;2023-01-29T18:01:11;22.00;;;19.90;;
16994;SDS011;8614;48.522;9.206;2023-01-29T18:03:41;21.30;;;19.30;;
16994;SDS011;8614;48.522;9.206;2023-01-29T18:06:14;21.53;;;19.30;;
16994;SDS011;8614;48.522;9.206;2023-01-29T18:08:48;21.53;;;19.23;;
16994;SDS011;8614;48.522;9.206;2023-01-29T18:11:18;23.17;;;20.97;;
16994;SDS011;8614;48.522;9.206;2023-01-29T18:13:46;21.57;;;19.27;;
16994;SDS011;8614;48.522;9.206;2023-01-29T18:16:37;21.07;;;19.07;;
16994;SDS011;8614;48.522;9.206;2023-01-29T18:19:08;21.93;;;19.83;;
16994;SDS011;8614;48.522;9.206;2023-01-29T18:21:39;21.50;;;19.27;;
16994;SDS011;8614;48.522;9.206;2023-01-29T18:24:06;21.67;;;19.57;;
16994;SDS011;8614;48.522;9.206;2023-01-29T18:26:33;22.67;;;20.37;;
16994;SDS011;8614;48.522;9.206;2023-01-29T18:29:01;23.90;;;21.43;;